Mount Zion, West Virginia
Current Conditions -  °F | °C
As of 11:53 AM on Sunday 23 Nov 2014 (Local Time) from KPKB Reporting Station
Broken Clouds Broken Clouds  
Wind Chill: 63°   Ceiling: 4500
Heat Index: 63°   Visibility: 10mi
Dew Point: 36°   Wind: 6mph
Humidity: 37%   Direction: 180°S
Pressure: 30"   Gusts: NA
Location:  38.87°N, 81.12°W
Report Text: KPKB 231653Z 18005KT 10SM BKN045 BKN055 17/02 A3000 RMK AO2 SLP157 T01720022
Loading
Personal Weather Stations






























Interactive Weather Map New forecast layout! Learn more

10-Day Weather Forecast

Advertisements
Track Severe Weather on mobile